sensor_id;sensor_type;location;lat;lon;timestamp;noise_LAeq;noise_LA_min;noise_LA_max;noise_LA01;noise_LA95
69608;Laerm;57251;52.248;4.812;2023-05-10T00:00:04;34.17;32.55;36.26;;
69608;Laerm;57251;52.248;4.812;2023-05-10T00:00:16;34.09;32.42;36.31;;
69608;Laerm;57251;52.248;4.812;2023-05-10T00:00:26;34.30;32.56;39.37;;
69608;Laerm;57251;52.248;4.812;2023-05-10T00:00:36;34.56;32.62;39.95;;
69608;Laerm;57251;52.248;4.812;2023-05-10T00:00:46;34.61;32.66;38.93;;
69608;Laerm;57251;52.248;4.812;2023-05-10T00:00:57;34.97;32.50;46.27;;
69608;Laerm;57251;52.248;4.812;2023-05-10T00:01:07;34.71;33.00;37.66;;
69608;Laerm;57251;52.248;4.812;2023-05-10T00:01:17;35.23;33.29;38.83;;
69608;Laerm;57251;52.248;4.812;2023-05-10T00:01:27;35.16;33.07;41.40;;
69608;Laerm;57251;52.248;4.812;2023-05-10T00:01:38;34.77;32.73;38.43;;
69608;Laerm;57251;52.248;4.812;2023-05-10T00:01:48;35.14;32.86;39.95;;
69608;Laerm;57251;52.248;4.812;2023-05-10T00:01:58;34.66;32.68;36.57;;
69608;Laerm;57251;52.248;4.812;2023-05-10T00:02:08;34.76;33.15;38.78;;
69608;Laerm;57251;52.248;4.812;2023-05-10T00:02:19;34.50;32.93;36.95;;
69608;Laerm;57251;52.248;4.812;2023-05-10T00:02:29;34.98;33.08;37.98;;
69608;Laerm;57251;52.248;4.812;2023-05-10T00:02:39;35.52;33.84;37.75;;
69608;Laerm;57251;52.248;4.812;2023-05-10T00:02:50;34.74;32.96;43.07;;
69608;Laerm;57251;52.248;4.812;2023-05-10T00:03:00;34.78;32.67;39.05;;
69608;Laerm;57251;52.248;4.812;2023-05-10T00:03:11;34.37;32.37;35.73;;
69608;Laerm;57251;52.248;4.812;2023-05-10T00:03:21;34.04;32.40;41.66;;
69608;Laerm;57251;52.248;4.812;2023-05-10T00:03:31;33.98;32.59;36.12;;
69608;Laerm;57251;52.248;4.812;2023-05-10T00:03:42;34.32;33.06;36.92;;
69608;Laerm;57251;52.248;4.812;2023-05-10T00:03:52;35.25;32.56;40.16;;
69608;Laerm;57251;52.248;4.812;2023-05-10T00:04:02;34.76;32.83;37.85;;
69608;Laerm;57251;52.248;4.812;2023-05-10T00:04:13;36.07;33.71;41.66;;
69608;Laerm;57251;52.248;4.812;2023-05-10T00:04:23;35.02;33.04;37.67;;
69608;Laerm;57251;52.248;4.812;2023-05-10T00:04:37;34.77;32.95;45.71;;
69608;Laerm;57251;52.248;4.812;2023-05-10T00:04:47;34.80;33.54;37.70;;
69608;Laerm;57251;52.248;4.812;2023-05-10T00:04:58;35.07;33.39;39.97;;
69608;Laerm;57251;52.248;4.812;2023-05-10T00:05:08;35.20;33.66;39.44;;
69608;Laerm;57251;52.248;4.812;2023-05-10T00:05:19;35.06;33.11;38.09;;
69608;Laerm;57251;52.248;4.812;2023-05-10T00:05:29;35.46;33.65;39.45;;
69608;Laerm;57251;52.248;4.812;2023-05-10T00:05:39;35.16;33.48;44.71;;
69608;Laerm;57251;52.248;4.812;2023-05-10T00:05:49;35.46;33.31;39.56;;
69608;Laerm;57251;52.248;4.812;2023-05-10T00:06:00;36.23;33.83;42.08;;
69608;Laerm;57251;52.248;4.812;2023-05-10T00:06:10;35.40;33.15;40.43;;
69608;Laerm;57251;52.248;4.812;2023-05-10T00:06:20;34.91;32.92;38.62;;
69608;Laerm;57251;52.248;4.812;2023-05-10T00:06:30;35.34;33.76;37.41;;
69608;Laerm;57251;52.248;4.812;2023-05-10T00:06:41;36.15;33.87;38.64;;
69608;Laerm;57251;52.248;4.812;2023-05-10T00:06:51;35.66;33.40;43.71;;
69608;Laerm;57251;52.248;4.812;2023-05-10T00:07:02;34.90;32.97;37.47;;
69608;Laerm;57251;52.248;4.812;2023-05-10T00:07:12;35.83;33.40;39.05;;
69608;Laerm;57251;52.248;4.812;2023-05-10T00:07:22;36.64;34.20;40.25;;
69608;Laerm;57251;52.248;4.812;2023-05-10T00:07:38;37.32;34.49;41.73;;
69608;Laerm;57251;52.248;4.812;2023-05-10T00:07:51;36.57;33.50;40.76;;
69608;Laerm;57251;52.248;4.812;2023-05-10T00:08:01;36.24;33.54;40.79;;
69608;Laerm;57251;52.248;4.812;2023-05-10T00:08:12;35.52;33.54;42.28;;
69608;Laerm;57251;52.248;4.812;2023-05-10T00:08:22;35.75;33.71;39.93;;
69608;Laerm;57251;52.248;4.812;2023-05-10T00:08:32;35.37;32.71;38.69;;
69608;Laerm;57251;52.248;4.812;2023-05-10T00:08:43;35.13;33.57;41.22;;
69608;Laerm;57251;52.248;4.812;2023-05-10T00:08:53;34.90;33.10;37.12;;
69608;Laerm;57251;52.248;4.812;2023-05-10T00:09:03;34.87;33.00;37.29;;
69608;Laerm;57251;52.248;4.812;2023-05-10T00:09:14;34.28;32.57;37.88;;
69608;Laerm;57251;52.248;4.812;2023-05-10T00:09:24;34.26;32.82;37.39;;
69608;Laerm;57251;52.248;4.812;2023-05-10T00:09:34;34.18;32.63;36.08;;
69608;Laerm;57251;52.248;4.812;2023-05-10T00:09:44;35.02;32.87;41.86;;
69608;Laerm;57251;52.248;4.812;2023-05-10T00:09:55;34.32;32.50;37.56;;
69608;Laerm;57251;52.248;4.812;2023-05-10T00:10:05;34.38;32.56;45.25;;
69608;Laerm;57251;52.248;4.812;2023-05-10T00:10:15;34.51;32.85;41.64;;
69608;Laerm;57251;52.248;4.812;2023-05-10T00:10:25;34.85;33.23;40.55;;
69608;Laerm;57251;52.248;4.812;2023-05-10T00:10:36;35.98;33.32;46.81;;
69608;Laerm;57251;52.248;4.812;2023-05-10T00:10:47;35.51;33.01;46.44;;
69608;Laerm;57251;52.248;4.812;2023-05-10T00:10:57;35.25;33.41;38.05;;
69608;Laerm;57251;52.248;4.812;2023-05-10T00:11:07;35.31;33.37;39.06;;
69608;Laerm;57251;52.248;4.812;2023-05-10T00:11:18;36.85;33.68;41.59;;
69608;Laerm;57251;52.248;4.812;2023-05-10T00:11:28;38.56;34.82;43.44;;
69608;Laerm;57251;52.248;4.812;2023-05-10T00:11:38;35.99;33.75;40.11;;
69608;Laerm;57251;52.248;4.812;2023-05-10T00:11:48;36.14;33.58;39.87;;
69608;Laerm;57251;52.248;4.812;2023-05-10T00:11:59;36.66;34.88;39.23;;
69608;Laerm;57251;52.248;4.812;2023-05-10T00:12:09;35.70;33.26;43.13;;
69608;Laerm;57251;52.248;4.812;2023-05-10T00:12:19;34.95;33.42;37.59;;
69608;Laerm;57251;52.248;4.812;2023-05-10T00:12:30;34.76;33.05;38.51;;
69608;Laerm;57251;52.248;4.812;2023-05-10T00:12:40;34.97;33.31;37.04;;
69608;Laerm;57251;52.248;4.812;2023-05-10T00:12:50;36.05;34.04;38.36;;
69608;Laerm;57251;52.248;4.812;2023-05-10T00:13:00;38.10;35.76;40.84;;
69608;Laerm;57251;52.248;4.812;2023-05-10T00:13:11;41.86;37.89;47.29;;
69608;Laerm;57251;52.248;4.812;2023-05-10T00:13:21;38.40;33.90;45.83;;
69608;Laerm;57251;52.248;4.812;2023-05-10T00:13:31;38.50;33.96;44.62;;
69608;Laerm;57251;52.248;4.812;2023-05-10T00:13:42;43.48;37.21;50.97;;
69608;Laerm;57251;52.248;4.812;2023-05-10T00:13:52;37.94;34.68;42.45;;
69608;Laerm;57251;52.248;4.812;2023-05-10T00:14:02;36.95;33.97;42.18;;
69608;Laerm;57251;52.248;4.812;2023-05-10T00:14:12;35.20;33.38;42.05;;
69608;Laerm;57251;52.248;4.812;2023-05-10T00:14:23;35.17;33.71;38.89;;
69608;Laerm;57251;52.248;4.812;2023-05-10T00:14:33;34.73;33.28;40.62;;
69608;Laerm;57251;52.248;4.812;2023-05-10T00:14:43;34.71;32.83;40.47;;
69608;Laerm;57251;52.248;4.812;2023-05-10T00:14:53;34.51;33.08;39.44;;
69608;Laerm;57251;52.248;4.812;2023-05-10T00:15:05;34.43;33.13;36.26;;
69608;Laerm;57251;52.248;4.812;2023-05-10T00:15:15;35.34;33.02;44.80;;
69608;Laerm;57251;52.248;4.812;2023-05-10T00:15:26;34.80;32.68;39.80;;
69608;Laerm;57251;52.248;4.812;2023-05-10T00:15:36;35.27;32.81;41.68;;
69608;Laerm;57251;52.248;4.812;2023-05-10T00:15:46;34.07;32.70;39.23;;
69608;Laerm;57251;52.248;4.812;2023-05-10T00:15:57;34.19;32.99;36.23;;
69608;Laerm;57251;52.248;4.812;2023-05-10T00:16:07;34.30;32.74;36.25;;
69608;Laerm;57251;52.248;4.812;2023-05-10T00:16:17;36.06;32.85;43.43;;
69608;Laerm;57251;52.248;4.812;2023-05-10T00:16:27;34.57;32.48;39.49;;
69608;Laerm;57251;52.248;4.812;2023-05-10T00:16:37;34.08;32.67;36.43;;
69608;Laerm;57251;52.248;4.812;2023-05-10T00:16:48;34.21;32.48;41.85;;
69608;Laerm;57251;52.248;4.812;2023-05-10T00:16:58;36.28;32.90;46.01;;
69608;Laerm;57251;52.248;4.812;2023-05-10T00:17:08;35.26;32.64;38.59;;
69608;Laerm;57251;52.248;4.812;2023-05-10T00:17:18;36.62;34.03;39.93;;
69608;Laerm;57251;52.248;4.812;2023-05-10T00:17:29;37.14;33.47;40.08;;
69608;Laerm;57251;52.248;4.812;2023-05-10T00:17:39;39.55;34.16;53.79;;
69608;Laerm;57251;52.248;4.812;2023-05-10T00:17:49;38.50;34.29;43.49;;
69608;Laerm;57251;52.248;4.812;2023-05-10T00:17:59;35.03;33.59;39.94;;
69608;Laerm;57251;52.248;4.812;2023-05-10T00:18:10;35.01;33.19;40.08;;
69608;Laerm;57251;52.248;4.812;2023-05-10T00:18:20;34.82;33.10;39.11;;
69608;Laerm;57251;52.248;4.812;2023-05-10T00:18:30;35.33;33.23;37.36;;
69608;Laerm;57251;52.248;4.812;2023-05-10T00:18:40;35.88;34.13;38.58;;
69608;Laerm;57251;52.248;4.812;2023-05-10T00:18:51;35.29;33.77;36.69;;
69608;Laerm;57251;52.248;4.812;2023-05-10T00:19:01;35.90;34.14;44.24;;
69608;Laerm;57251;52.248;4.812;2023-05-10T00:19:11;36.29;34.40;39.51;;
69608;Laerm;57251;52.248;4.812;2023-05-10T00:19:21;35.58;34.03;39.39;;
69608;Laerm;57251;52.248;4.812;2023-05-10T00:19:31;35.37;33.62;42.27;;
69608;Laerm;57251;52.248;4.812;2023-05-10T00:19:42;36.06;34.63;41.01;;
69608;Laerm;57251;52.248;4.812;2023-05-10T00:19:52;36.59;34.64;41.93;;
69608;Laerm;57251;52.248;4.812;2023-05-10T00:20:02;37.74;34.01;46.08;;
69608;Laerm;57251;52.248;4.812;2023-05-10T00:20:14;35.05;33.31;40.78;;
69608;Laerm;57251;52.248;4.812;2023-05-10T00:20:25;34.87;33.25;38.37;;
69608;Laerm;57251;52.248;4.812;2023-05-10T00:20:35;35.39;33.10;42.04;;
69608;Laerm;57251;52.248;4.812;2023-05-10T00:20:45;34.87;33.42;37.31;;
69608;Laerm;57251;52.248;4.812;2023-05-10T00:20:58;37.09;33.84;47.94;;
69608;Laerm;57251;52.248;4.812;2023-05-10T00:21:09;36.63;33.70;46.48;;
69608;Laerm;57251;52.248;4.812;2023-05-10T00:21:19;35.45;33.84;38.07;;
69608;Laerm;57251;52.248;4.812;2023-05-10T00:21:29;34.90;32.52;41.70;;
69608;Laerm;57251;52.248;4.812;2023-05-10T00:21:39;34.56;32.85;38.03;;
69608;Laerm;57251;52.248;4.812;2023-05-10T00:21:50;34.41;32.83;36.99;;
69608;Laerm;57251;52.248;4.812;2023-05-10T00:22:00;35.60;33.29;50.05;;
69608;Laerm;57251;52.248;4.812;2023-05-10T00:22:10;34.97;33.30;38.69;;
69608;Laerm;57251;52.248;4.812;2023-05-10T00:22:20;35.03;33.42;39.32;;
69608;Laerm;57251;52.248;4.812;2023-05-10T00:22:31;34.72;33.18;36.84;;
69608;Laerm;57251;52.248;4.812;2023-05-10T00:22:41;34.68;32.90;36.84;;
69608;Laerm;57251;52.248;4.812;2023-05-10T00:22:52;34.58;33.06;41.18;;
69608;Laerm;57251;52.248;4.812;2023-05-10T00:23:02;34.49;32.89;36.05;;
69608;Laerm;57251;52.248;4.812;2023-05-10T00:23:12;34.40;33.02;39.78;;
69608;Laerm;57251;52.248;4.812;2023-05-10T00:23:22;34.74;32.64;48.47;;
69608;Laerm;57251;52.248;4.812;2023-05-10T00:23:33;34.30;33.05;36.40;;
69608;Laerm;57251;52.248;4.812;2023-05-10T00:23:43;34.56;32.94;42.30;;
69608;Laerm;57251;52.248;4.812;2023-05-10T00:23:53;34.59;33.37;36.74;;
69608;Laerm;57251;52.248;4.812;2023-05-10T00:24:04;34.50;33.13;36.32;;
69608;Laerm;57251;52.248;4.812;2023-05-10T00:24:14;34.74;33.18;37.58;;
69608;Laerm;57251;52.248;4.812;2023-05-10T00:24:24;34.76;33.40;36.68;;
69608;Laerm;57251;52.248;4.812;2023-05-10T00:24:35;34.83;33.40;41.71;;
69608;Laerm;57251;52.248;4.812;2023-05-10T00:24:45;34.88;33.57;37.29;;
69608;Laerm;57251;52.248;4.812;2023-05-10T00:24:55;34.92;33.53;36.40;;
69608;Laerm;57251;52.248;4.812;2023-05-10T00:25:06;34.50;32.98;37.64;;
69608;Laerm;57251;52.248;4.812;2023-05-10T00:25:16;34.58;33.07;44.38;;
69608;Laerm;57251;52.248;4.812;2023-05-10T00:25:26;34.58;32.92;39.21;;
69608;Laerm;57251;52.248;4.812;2023-05-10T00:25:37;34.63;32.51;36.41;;
69608;Laerm;57251;52.248;4.812;2023-05-10T00:25:47;34.59;32.87;36.04;;
69608;Laerm;57251;52.248;4.812;2023-05-10T00:25:57;34.75;33.16;44.69;;
69608;Laerm;57251;52.248;4.812;2023-05-10T00:26:07;34.86;33.05;36.55;;
69608;Laerm;57251;52.248;4.812;2023-05-10T00:26:18;34.87;33.25;38.13;;
69608;Laerm;57251;52.248;4.812;2023-05-10T00:26:28;34.83;33.14;36.46;;
69608;Laerm;57251;52.248;4.812;2023-05-10T00:26:38;34.48;32.85;36.00;;
69608;Laerm;57251;52.248;4.812;2023-05-10T00:26:48;34.38;32.81;35.97;;
69608;Laerm;57251;52.248;4.812;2023-05-10T00:26:58;35.01;32.69;39.60;;
69608;Laerm;57251;52.248;4.812;2023-05-10T00:27:09;34.84;32.58;41.18;;
69608;Laerm;57251;52.248;4.812;2023-05-10T00:27:19;35.35;33.16;45.56;;
69608;Laerm;57251;52.248;4.812;2023-05-10T00:27:29;34.42;33.08;36.23;;
69608;Laerm;57251;52.248;4.812;2023-05-10T00:27:39;34.70;32.77;39.09;;
69608;Laerm;57251;52.248;4.812;2023-05-10T00:27:50;36.59;33.95;39.82;;
69608;Laerm;57251;52.248;4.812;2023-05-10T00:28:00;35.32;33.37;41.32;;
69608;Laerm;57251;52.248;4.812;2023-05-10T00:28:11;35.00;33.28;37.57;;
69608;Laerm;57251;52.248;4.812;2023-05-10T00:28:22;34.62;33.22;38.90;;
69608;Laerm;57251;52.248;4.812;2023-05-10T00:28:32;35.16;33.43;37.85;;
69608;Laerm;57251;52.248;4.812;2023-05-10T00:28:42;34.77;33.28;38.86;;
69608;Laerm;57251;52.248;4.812;2023-05-10T00:28:52;34.29;33.08;36.55;;
69608;Laerm;57251;52.248;4.812;2023-05-10T00:29:03;34.81;33.19;36.09;;
69608;Laerm;57251;52.248;4.812;2023-05-10T00:29:13;34.69;33.16;36.92;;
69608;Laerm;57251;52.248;4.812;2023-05-10T00:29:23;34.25;32.80;37.53;;
69608;Laerm;57251;52.248;4.812;2023-05-10T00:29:34;34.45;32.83;36.67;;
69608;Laerm;57251;52.248;4.812;2023-05-10T00:29:44;34.21;32.69;36.43;;
69608;Laerm;57251;52.248;4.812;2023-05-10T00:29:54;34.67;32.97;38.46;;
69608;Laerm;57251;52.248;4.812;2023-05-10T00:30:05;34.65;33.31;37.30;;
69608;Laerm;57251;52.248;4.812;2023-05-10T00:30:16;34.83;33.16;40.19;;
69608;Laerm;57251;52.248;4.812;2023-05-10T00:30:26;34.55;33.10;42.64;;
69608;Laerm;57251;52.248;4.812;2023-05-10T00:30:36;35.58;33.79;40.33;;
69608;Laerm;57251;52.248;4.812;2023-05-10T00:30:46;35.79;33.35;38.91;;
69608;Laerm;57251;52.248;4.812;2023-05-10T00:30:57;36.52;33.27;44.42;;
69608;Laerm;57251;52.248;4.812;2023-05-10T00:31:07;38.84;32.95;50.00;;
69608;Laerm;57251;52.248;4.812;2023-05-10T00:31:17;37.31;33.66;47.93;;
69608;Laerm;57251;52.248;4.812;2023-05-10T00:31:27;37.75;33.54;46.44;;
69608;Laerm;57251;52.248;4.812;2023-05-10T00:31:38;34.72;32.93;41.48;;
69608;Laerm;57251;52.248;4.812;2023-05-10T00:31:48;34.29;32.54;35.89;;
69608;Laerm;57251;52.248;4.812;2023-05-10T00:31:58;34.55;32.78;36.96;;
69608;Laerm;57251;52.248;4.812;2023-05-10T00:32:08;34.66;32.71;36.50;;
69608;Laerm;57251;52.248;4.812;2023-05-10T00:32:19;34.98;33.47;37.20;;
69608;Laerm;57251;52.248;4.812;2023-05-10T00:32:29;34.79;33.18;40.10;;
69608;Laerm;57251;52.248;4.812;2023-05-10T00:32:39;35.12;32.94;40.01;;
69608;Laerm;57251;52.248;4.812;2023-05-10T00:32:49;34.89;33.41;39.30;;
69608;Laerm;57251;52.248;4.812;2023-05-10T00:33:01;35.68;33.80;39.67;;
69608;Laerm;57251;52.248;4.812;2023-05-10T00:33:12;40.38;34.76;52.50;;
69608;Laerm;57251;52.248;4.812;2023-05-10T00:33:22;43.88;38.06;51.85;;
69608;Laerm;57251;52.248;4.812;2023-05-10T00:33:32;36.99;34.84;42.48;;
69608;Laerm;57251;52.248;4.812;2023-05-10T00:33:42;35.95;34.16;40.11;;
69608;Laerm;57251;52.248;4.812;2023-05-10T00:33:53;35.63;33.63;45.40;;
69608;Laerm;57251;52.248;4.812;2023-05-10T00:34:03;35.21;33.33;37.08;;
69608;Laerm;57251;52.248;4.812;2023-05-10T00:34:13;36.43;34.60;41.73;;
69608;Laerm;57251;52.248;4.812;2023-05-10T00:34:23;36.28;34.39;38.30;;
69608;Laerm;57251;52.248;4.812;2023-05-10T00:34:34;36.04;33.96;37.76;;
69608;Laerm;57251;52.248;4.812;2023-05-10T00:34:44;35.33;33.03;37.61;;
69608;Laerm;57251;52.248;4.812;2023-05-10T00:34:55;35.39;33.88;38.01;;
69608;Laerm;57251;52.248;4.812;2023-05-10T00:35:05;35.15;33.31;40.03;;
69608;Laerm;57251;52.248;4.812;2023-05-10T00:35:15;34.69;33.41;37.33;;
69608;Laerm;57251;52.248;4.812;2023-05-10T00:35:26;34.87;33.36;44.09;;
69608;Laerm;57251;52.248;4.812;2023-05-10T00:35:36;34.92;33.53;36.57;;
69608;Laerm;57251;52.248;4.812;2023-05-10T00:35:47;34.87;33.45;40.23;;
69608;Laerm;57251;52.248;4.812;2023-05-10T00:35:58;34.79;33.09;37.84;;
69608;Laerm;57251;52.248;4.812;2023-05-10T00:36:08;35.21;33.28;37.24;;
69608;Laerm;57251;52.248;4.812;2023-05-10T00:36:18;34.76;33.21;40.00;;
69608;Laerm;57251;52.248;4.812;2023-05-10T00:36:29;34.50;33.03;35.95;;
69608;Laerm;57251;52.248;4.812;2023-05-10T00:36:39;34.51;33.14;36.31;;
69608;Laerm;57251;52.248;4.812;2023-05-10T00:36:49;35.18;33.45;39.67;;
69608;Laerm;57251;52.248;4.812;2023-05-10T00:36:59;37.27;34.06;54.37;;
69608;Laerm;57251;52.248;4.812;2023-05-10T00:37:09;34.72;32.88;39.26;;
69608;Laerm;57251;52.248;4.812;2023-05-10T00:37:20;34.61;32.91;36.48;;
69608;Laerm;57251;52.248;4.812;2023-05-10T00:37:30;35.51;32.74;51.89;;
69608;Laerm;57251;52.248;4.812;2023-05-10T00:37:40;34.92;33.20;44.31;;
69608;Laerm;57251;52.248;4.812;2023-05-10T00:37:50;34.59;33.07;37.28;;
69608;Laerm;57251;52.248;4.812;2023-05-10T00:38:01;36.15;33.15;44.79;;
69608;Laerm;57251;52.248;4.812;2023-05-10T00:38:11;35.50;33.13;40.86;;
69608;Laerm;57251;52.248;4.812;2023-05-10T00:38:21;35.90;33.36;39.31;;
69608;Laerm;57251;52.248;4.812;2023-05-10T00:38:32;36.52;33.05;38.57;;
69608;Laerm;57251;52.248;4.812;2023-05-10T00:38:42;37.74;33.20;52.31;;
69608;Laerm;57251;52.248;4.812;2023-05-10T00:38:52;55.71;33.95;69.64;;
69608;Laerm;57251;52.248;4.812;2023-05-10T00:39:03;48.83;34.13;61.42;;
69608;Laerm;57251;52.248;4.812;2023-05-10T00:39:13;35.91;33.51;44.77;;
69608;Laerm;57251;52.248;4.812;2023-05-10T00:39:23;34.99;33.27;37.19;;
69608;Laerm;57251;52.248;4.812;2023-05-10T00:39:34;41.90;33.20;59.42;;
69608;Laerm;57251;52.248;4.812;2023-05-10T00:39:44;35.57;33.85;37.49;;
69608;Laerm;57251;52.248;4.812;2023-05-10T00:39:54;34.91;33.30;39.62;;
69608;Laerm;57251;52.248;4.812;2023-05-10T00:40:05;34.82;33.09;40.28;;
69608;Laerm;57251;52.248;4.812;2023-05-10T00:40:15;34.86;32.79;37.68;;
69608;Laerm;57251;52.248;4.812;2023-05-10T00:40:26;36.51;33.37;44.56;;
69608;Laerm;57251;52.248;4.812;2023-05-10T00:40:36;35.00;33.18;36.51;;
69608;Laerm;57251;52.248;4.812;2023-05-10T00:40:47;34.44;32.87;37.71;;
69608;Laerm;57251;52.248;4.812;2023-05-10T00:40:57;34.66;32.94;43.71;;
69608;Laerm;57251;52.248;4.812;2023-05-10T00:41:07;48.61;33.70;61.40;;
69608;Laerm;57251;52.248;4.812;2023-05-10T00:41:18;38.78;33.38;51.39;;
69608;Laerm;57251;52.248;4.812;2023-05-10T00:41:29;35.12;33.21;40.43;;
69608;Laerm;57251;52.248;4.812;2023-05-10T00:41:39;36.87;34.09;44.21;;
69608;Laerm;57251;52.248;4.812;2023-05-10T00:41:49;34.46;32.97;36.57;;
69608;Laerm;57251;52.248;4.812;2023-05-10T00:41:59;34.64;33.08;37.49;;
69608;Laerm;57251;52.248;4.812;2023-05-10T00:42:10;34.80;33.32;37.86;;
69608;Laerm;57251;52.248;4.812;2023-05-10T00:42:20;35.60;33.03;47.58;;
69608;Laerm;57251;52.248;4.812;2023-05-10T00:42:30;34.66;33.41;35.82;;
69608;Laerm;57251;52.248;4.812;2023-05-10T00:42:40;35.05;33.35;42.73;;
69608;Laerm;57251;52.248;4.812;2023-05-10T00:42:51;35.15;33.15;38.59;;
69608;Laerm;57251;52.248;4.812;2023-05-10T00:43:01;37.26;33.23;47.49;;
69608;Laerm;57251;52.248;4.812;2023-05-10T00:43:11;35.56;34.29;37.60;;
69608;Laerm;57251;52.248;4.812;2023-05-10T00:43:22;36.39;34.28;39.98;;
69608;Laerm;57251;52.248;4.812;2023-05-10T00:43:32;37.68;35.35;43.74;;
69608;Laerm;57251;52.248;4.812;2023-05-10T00:43:42;44.22;34.55;54.59;;
69608;Laerm;57251;52.248;4.812;2023-05-10T00:43:52;47.37;35.37;57.00;;
69608;Laerm;57251;52.248;4.812;2023-05-10T00:44:03;42.53;35.07;51.37;;
69608;Laerm;57251;52.248;4.812;2023-05-10T00:44:14;42.32;35.05;49.33;;
69608;Laerm;57251;52.248;4.812;2023-05-10T00:44:24;35.99;33.71;39.49;;
69608;Laerm;57251;52.248;4.812;2023-05-10T00:44:34;34.54;32.78;36.92;;
69608;Laerm;57251;52.248;4.812;2023-05-10T00:44:44;45.27;33.50;56.96;;
69608;Laerm;57251;52.248;4.812;2023-05-10T00:44:56;46.49;33.82;58.67;;
69608;Laerm;57251;52.248;4.812;2023-05-10T00:45:07;36.21;33.48;44.02;;
69608;Laerm;57251;52.248;4.812;2023-05-10T00:45:18;36.15;33.32;44.60;;
69608;Laerm;57251;52.248;4.812;2023-05-10T00:45:30;34.79;32.59;40.50;;
69608;Laerm;57251;52.248;4.812;2023-05-10T00:45:41;34.43;32.91;39.40;;
69608;Laerm;57251;52.248;4.812;2023-05-10T00:45:51;34.12;32.94;36.55;;
69608;Laerm;57251;52.248;4.812;2023-05-10T00:46:02;35.22;32.99;42.26;;
69608;Laerm;57251;52.248;4.812;2023-05-10T00:46:14;35.24;32.63;42.04;;
69608;Laerm;57251;52.248;4.812;2023-05-10T00:46:25;34.73;32.84;46.16;;
69608;Laerm;57251;52.248;4.812;2023-05-10T00:46:35;37.47;32.58;48.51;;
69608;Laerm;57251;52.248;4.812;2023-05-10T00:46:46;41.55;34.02;51.39;;
69608;Laerm;57251;52.248;4.812;2023-05-10T00:46:57;37.90;33.30;46.33;;
69608;Laerm;57251;52.248;4.812;2023-05-10T00:47:07;36.76;33.03;49.51;;
69608;Laerm;57251;52.248;4.812;2023-05-10T00:47:18;34.79;33.02;44.95;;
69608;Laerm;57251;52.248;4.812;2023-05-10T00:47:28;34.47;32.89;42.62;;
69608;Laerm;57251;52.248;4.812;2023-05-10T00:47:39;34.17;32.75;36.49;;
69608;Laerm;57251;52.248;4.812;2023-05-10T00:47:49;34.89;32.75;45.16;;
69608;Laerm;57251;52.248;4.812;2023-05-10T00:48:00;36.44;33.12;49.07;;
69608;Laerm;57251;52.248;4.812;2023-05-10T00:48:12;34.11;31.92;37.12;;
69608;Laerm;57251;52.248;4.812;2023-05-10T00:48:22;33.91;32.05;40.16;;
69608;Laerm;57251;52.248;4.812;2023-05-10T00:48:33;34.33;32.96;39.60;;
69608;Laerm;57251;52.248;4.812;2023-05-10T00:48:44;34.07;32.95;36.75;;
69608;Laerm;57251;52.248;4.812;2023-05-10T00:48:54;34.29;32.81;36.42;;
69608;Laerm;57251;52.248;4.812;2023-05-10T00:49:05;34.73;32.83;38.27;;
69608;Laerm;57251;52.248;4.812;2023-05-10T00:49:16;36.37;33.50;40.28;;
69608;Laerm;57251;52.248;4.812;2023-05-10T00:49:26;37.87;34.49;44.67;;
69608;Laerm;57251;52.248;4.812;2023-05-10T00:49:36;38.37;34.52;43.57;;
69608;Laerm;57251;52.248;4.812;2023-05-10T00:49:46;39.55;35.67;44.94;;
69608;Laerm;57251;52.248;4.812;2023-05-10T00:49:57;38.26;35.32;45.96;;
69608;Laerm;57251;52.248;4.812;2023-05-10T00:50:08;37.30;34.56;40.39;;
69608;Laerm;57251;52.248;4.812;2023-05-10T00:50:19;37.15;34.32;41.16;;
69608;Laerm;57251;52.248;4.812;2023-05-10T00:50:30;36.87;34.11;41.04;;
69608;Laerm;57251;52.248;4.812;2023-05-10T00:50:40;37.10;34.38;41.03;;
69608;Laerm;57251;52.248;4.812;2023-05-10T00:50:51;35.89;33.35;41.72;;
69608;Laerm;57251;52.248;4.812;2023-05-10T00:51:01;35.34;33.73;41.70;;
69608;Laerm;57251;52.248;4.812;2023-05-10T00:51:12;35.59;33.42;40.59;;
69608;Laerm;57251;52.248;4.812;2023-05-10T00:51:23;34.96;32.69;40.14;;
69608;Laerm;57251;52.248;4.812;2023-05-10T00:51:33;35.54;32.62;46.43;;
69608;Laerm;57251;52.248;4.812;2023-05-10T00:51:43;34.97;32.88;41.07;;
69608;Laerm;57251;52.248;4.812;2023-05-10T00:51:54;34.93;33.20;48.33;;
69608;Laerm;57251;52.248;4.812;2023-05-10T00:52:04;34.30;32.73;38.31;;
69608;Laerm;57251;52.248;4.812;2023-05-10T00:52:15;35.03;33.06;41.04;;
69608;Laerm;57251;52.248;4.812;2023-05-10T00:52:25;34.64;32.31;42.73;;
69608;Laerm;57251;52.248;4.812;2023-05-10T00:52:35;34.46;32.51;36.74;;
69608;Laerm;57251;52.248;4.812;2023-05-10T00:52:46;35.20;33.22;43.64;;
69608;Laerm;57251;52.248;4.812;2023-05-10T00:52:56;35.20;32.86;44.15;;
69608;Laerm;57251;52.248;4.812;2023-05-10T00:53:07;34.47;32.88;36.97;;
69608;Laerm;57251;52.248;4.812;2023-05-10T00:53:18;37.04;32.81;50.99;;
69608;Laerm;57251;52.248;4.812;2023-05-10T00:53:28;34.53;32.65;39.85;;
69608;Laerm;57251;52.248;4.812;2023-05-10T00:53:41;34.28;32.61;41.98;;
69608;Laerm;57251;52.248;4.812;2023-05-10T00:53:51;34.28;32.66;36.74;;
69608;Laerm;57251;52.248;4.812;2023-05-10T00:54:02;34.37;32.81;38.47;;
69608;Laerm;57251;52.248;4.812;2023-05-10T00:54:12;34.30;32.79;37.03;;
69608;Laerm;57251;52.248;4.812;2023-05-10T00:54:23;34.18;32.57;38.59;;
69608;Laerm;57251;52.248;4.812;2023-05-10T00:54:34;34.60;32.70;41.84;;
69608;Laerm;57251;52.248;4.812;2023-05-10T00:54:44;35.25;33.26;38.65;;
69608;Laerm;57251;52.248;4.812;2023-05-10T00:54:57;35.53;33.83;38.85;;
69608;Laerm;57251;52.248;4.812;2023-05-10T00:55:10;34.99;32.85;41.81;;
69608;Laerm;57251;52.248;4.812;2023-05-10T00:55:22;35.16;32.96;39.06;;
69608;Laerm;57251;52.248;4.812;2023-05-10T00:55:32;35.53;33.40;39.20;;
69608;Laerm;57251;52.248;4.812;2023-05-10T00:55:42;35.02;32.99;38.62;;
69608;Laerm;57251;52.248;4.812;2023-05-10T00:55:53;37.38;34.18;45.04;;
69608;Laerm;57251;52.248;4.812;2023-05-10T00:56:03;39.23;34.61;48.22;;
69608;Laerm;57251;52.248;4.812;2023-05-10T00:56:17;43.13;35.04;60.84;;
69608;Laerm;57251;52.248;4.812;2023-05-10T00:56:30;42.08;34.39;58.21;;
69608;Laerm;57251;52.248;4.812;2023-05-10T00:56:41;38.29;33.62;51.72;;
69608;Laerm;57251;52.248;4.812;2023-05-10T00:56:51;34.96;33.21;36.49;;
69608;Laerm;57251;52.248;4.812;2023-05-10T00:57:02;37.10;33.58;44.06;;
69608;Laerm;57251;52.248;4.812;2023-05-10T00:57:13;34.65;32.94;37.85;;
69608;Laerm;57251;52.248;4.812;2023-05-10T00:57:23;35.26;33.65;38.48;;
69608;Laerm;57251;52.248;4.812;2023-05-10T00:57:39;35.96;33.69;39.64;;
69608;Laerm;57251;52.248;4.812;2023-05-10T00:57:50;35.05;33.02;37.24;;
69608;Laerm;57251;52.248;4.812;2023-05-10T00:58:00;34.77;33.23;37.61;;
69608;Laerm;57251;52.248;4.812;2023-05-10T00:58:11;34.95;32.82;39.13;;
69608;Laerm;57251;52.248;4.812;2023-05-10T00:58:22;34.76;33.06;37.26;;
69608;Laerm;57251;52.248;4.812;2023-05-10T00:58:33;35.11;33.37;37.25;;
69608;Laerm;57251;52.248;4.812;2023-05-10T00:58:44;35.32;33.45;38.71;;